sensor_id;sensor_type;location;lat;lon;timestamp;pressure;altitude;pressure_sealevel;temperature;humidity
26839;BME280;40088;51.214;6.786;2023-03-20T00:05:39;101684.69;;;17.30;54.88
26839;BME280;40088;51.214;6.786;2023-03-20T00:15:41;101693.81;;;17.30;54.89
26839;BME280;40088;51.214;6.786;2023-03-20T00:25:43;101697.59;;;17.29;54.75
26839;BME280;40088;51.214;6.786;2023-03-20T00:35:44;101701.22;;;17.30;54.42
26839;BME280;40088;51.214;6.786;2023-03-20T00:45:45;101705.00;;;17.29;54.62
26839;BME280;40088;51.214;6.786;2023-03-20T00:55:45;101699.50;;;17.29;54.74
26839;BME280;40088;51.214;6.786;2023-03-20T01:05:46;101685.91;;;17.27;54.58
26839;BME280;40088;51.214;6.786;2023-03-20T01:15:48;101671.28;;;17.27;54.66
26839;BME280;40088;51.214;6.786;2023-03-20T01:25:49;101664.53;;;17.29;54.44
26839;BME280;40088;51.214;6.786;2023-03-20T01:35:50;101661.13;;;17.27;54.51
26839;BME280;40088;51.214;6.786;2023-03-20T01:56:03;101649.25;;;17.27;54.39
26839;BME280;40088;51.214;6.786;2023-03-20T02:06:05;101663.00;;;17.27;54.46
26839;BME280;40088;51.214;6.786;2023-03-20T02:16:10;101681.41;;;17.26;54.31
26839;BME280;40088;51.214;6.786;2023-03-20T02:46:57;101662.31;;;17.25;54.32
26839;BME280;40088;51.214;6.786;2023-03-20T02:57:04;101677.81;;;17.26;54.29
26839;BME280;40088;51.214;6.786;2023-03-20T03:07:08;101675.03;;;17.26;54.31
26839;BME280;40088;51.214;6.786;2023-03-20T03:17:12;101680.75;;;17.24;54.35
26839;BME280;40088;51.214;6.786;2023-03-20T03:27:17;101640.28;;;17.25;54.19
26839;BME280;40088;51.214;6.786;2023-03-20T03:37:26;101665.06;;;17.25;54.16
26839;BME280;40088;51.214;6.786;2023-03-20T03:47:35;101680.75;;;17.24;54.14
26839;BME280;40088;51.214;6.786;2023-03-20T03:57:44;101670.75;;;17.23;53.97
26839;BME280;40088;51.214;6.786;2023-03-20T04:07:46;101667.81;;;17.25;53.97
26839;BME280;40088;51.214;6.786;2023-03-20T04:17:46;101667.81;;;17.25;54.08
26839;BME280;40088;51.214;6.786;2023-03-20T04:27:47;101655.09;;;17.24;54.04
26839;BME280;40088;51.214;6.786;2023-03-20T04:37:48;101645.97;;;17.23;54.05
26839;BME280;40088;51.214;6.786;2023-03-20T04:47:48;101644.94;;;17.24;53.89
26839;BME280;40088;51.214;6.786;2023-03-20T04:57:49;101655.94;;;17.24;53.95
26839;BME280;40088;51.214;6.786;2023-03-20T05:07:50;101644.75;;;17.26;53.76
26839;BME280;40088;51.214;6.786;2023-03-20T05:17:50;101644.75;;;17.26;53.83
26839;BME280;40088;51.214;6.786;2023-03-20T05:27:51;101654.75;;;17.27;53.86
26839;BME280;40088;51.214;6.786;2023-03-20T05:37:51;101652.16;;;17.25;53.80
26839;BME280;40088;51.214;6.786;2023-03-20T05:47:51;101656.63;;;17.26;53.77
26839;BME280;40088;51.214;6.786;2023-03-20T05:57:51;101656.63;;;17.26;53.74
26839;BME280;40088;51.214;6.786;2023-03-20T06:07:52;101648.34;;;17.26;53.67
26839;BME280;40088;51.214;6.786;2023-03-20T06:17:53;101660.25;;;17.27;53.68
26839;BME280;40088;51.214;6.786;2023-03-20T06:27:53;101648.34;;;17.26;53.62
26839;BME280;40088;51.214;6.786;2023-03-20T06:37:54;101655.59;;;17.27;53.53
26839;BME280;40088;51.214;6.786;2023-03-20T06:47:54;101674.03;;;17.27;53.63
26839;BME280;40088;51.214;6.786;2023-03-20T06:57:54;101700.53;;;17.28;53.51
26839;BME280;40088;51.214;6.786;2023-03-20T07:07:55;101708.63;;;17.29;53.52
26839;BME280;40088;51.214;6.786;2023-03-20T07:17:55;101723.63;;;17.27;53.76
26839;BME280;40088;51.214;6.786;2023-03-20T07:27:55;101727.22;;;17.27;53.55
26839;BME280;40088;51.214;6.786;2023-03-20T07:37:55;101726.38;;;17.27;53.53
26839;BME280;40088;51.214;6.786;2023-03-20T07:47:56;101731.88;;;17.27;53.50
26839;BME280;40088;51.214;6.786;2023-03-20T07:57:56;101741.16;;;17.26;53.47
26839;BME280;40088;51.214;6.786;2023-03-20T08:07:57;101749.41;;;17.26;53.37
26839;BME280;40088;51.214;6.786;2023-03-20T08:17:57;101745.66;;;17.27;53.38
26839;BME280;40088;51.214;6.786;2023-03-20T08:27:59;101753.22;;;17.25;53.42
26839;BME280;40088;51.214;6.786;2023-03-20T08:38:01;101757.53;;;17.27;53.31
26839;BME280;40088;51.214;6.786;2023-03-20T08:48:01;101752.03;;;17.27;53.36
26839;BME280;40088;51.214;6.786;2023-03-20T08:58:01;101747.53;;;17.26;53.47
26839;BME280;40088;51.214;6.786;2023-03-20T09:08:02;101756.50;;;17.28;53.26
26839;BME280;40088;51.214;6.786;2023-03-20T09:18:03;101760.28;;;17.27;53.44
26839;BME280;40088;51.214;6.786;2023-03-20T09:28:03;101761.16;;;17.28;53.23
26839;BME280;40088;51.214;6.786;2023-03-20T09:38:03;101750.13;;;17.28;53.29
26839;BME280;40088;51.214;6.786;2023-03-20T09:58:20;101744.63;;;17.28;53.23
26839;BME280;40088;51.214;6.786;2023-03-20T10:08:27;101762.84;;;17.29;53.06
26839;BME280;40088;51.214;6.786;2023-03-20T10:18:33;101759.44;;;17.27;53.07
26839;BME280;40088;51.214;6.786;2023-03-20T10:28:59;101746.31;;;17.29;53.13
26839;BME280;40088;51.214;6.786;2023-03-20T10:49:45;101751.84;;;17.29;52.89
26839;BME280;40088;51.214;6.786;2023-03-20T10:59:49;101740.81;;;17.29;52.88
26839;BME280;40088;51.214;6.786;2023-03-20T11:20:05;101726.38;;;17.27;52.96
26839;BME280;40088;51.214;6.786;2023-03-20T11:30:12;101721.72;;;17.27;52.90
26839;BME280;40088;51.214;6.786;2023-03-20T11:40:25;101713.28;;;17.29;52.73
26839;BME280;40088;51.214;6.786;2023-03-20T11:50:34;101718.78;;;17.29;52.96
26839;BME280;40088;51.214;6.786;2023-03-20T12:00:37;101717.06;;;17.28;52.84
26839;BME280;40088;51.214;6.786;2023-03-20T12:10:47;101722.56;;;17.28;52.76
26839;BME280;40088;51.214;6.786;2023-03-20T12:21:03;101716.03;;;17.29;52.79
26839;BME280;40088;51.214;6.786;2023-03-20T12:41:23;101685.72;;;17.29;52.81
26839;BME280;40088;51.214;6.786;2023-03-20T13:21:52;101643.53;;;17.28;52.49
26839;BME280;40088;51.214;6.786;2023-03-20T13:42:00;101624.25;;;17.28;52.59
26839;BME280;40088;51.214;6.786;2023-03-20T13:52:16;101621.69;;;17.27;52.67
26839;BME280;40088;51.214;6.786;2023-03-20T14:02:37;101621.69;;;17.27;52.64
26839;BME280;40088;51.214;6.786;2023-03-20T14:12:47;101627.88;;;17.29;52.55
26839;BME280;40088;51.214;6.786;2023-03-20T14:22:48;101609.44;;;17.29;52.59
26839;BME280;40088;51.214;6.786;2023-03-20T14:32:57;101600.34;;;17.29;52.55
26839;BME280;40088;51.214;6.786;2023-03-20T14:53:26;101589.31;;;17.29;52.54
26839;BME280;40088;51.214;6.786;2023-03-20T15:03:26;101580.19;;;17.28;52.57
26839;BME280;40088;51.214;6.786;2023-03-20T15:13:27;101572.78;;;17.29;52.55
26839;BME280;40088;51.214;6.786;2023-03-20T15:23:28;101573.44;;;17.31;52.51
26839;BME280;40088;51.214;6.786;2023-03-20T15:33:34;101570.03;;;17.29;52.52
26839;BME280;40088;51.214;6.786;2023-03-20T15:43:35;101546.09;;;17.29;52.52
26839;BME280;40088;51.214;6.786;2023-03-20T15:53:38;101536.13;;;17.28;52.68
26839;BME280;40088;51.214;6.786;2023-03-20T16:03:39;101523.00;;;17.30;52.88
26839;BME280;40088;51.214;6.786;2023-03-20T16:13:45;101516.66;;;17.30;52.73
26839;BME280;40088;51.214;6.786;2023-03-20T16:23:48;101518.34;;;17.31;52.46
26839;BME280;40088;51.214;6.786;2023-03-20T16:33:51;101520.09;;;17.32;52.49
26839;BME280;40088;51.214;6.786;2023-03-20T16:43:53;101515.78;;;17.29;52.57
26839;BME280;40088;51.214;6.786;2023-03-20T16:53:56;101518.34;;;17.31;52.62
26839;BME280;40088;51.214;6.786;2023-03-20T17:04:12;101514.75;;;17.30;52.57
26839;BME280;40088;51.214;6.786;2023-03-20T17:14:13;101513.03;;;17.29;52.62
26839;BME280;40088;51.214;6.786;2023-03-20T17:24:15;101523.88;;;17.31;52.69
26839;BME280;40088;51.214;6.786;2023-03-20T17:34:16;101530.22;;;17.31;52.54
26839;BME280;40088;51.214;6.786;2023-03-20T17:44:16;101531.28;;;17.30;52.65
26839;BME280;40088;51.214;6.786;2023-03-20T17:54:16;101537.63;;;17.31;52.55
26839;BME280;40088;51.214;6.786;2023-03-20T18:04:16;101538.69;;;17.30;52.70
26839;BME280;40088;51.214;6.786;2023-03-20T18:14:18;101532.13;;;17.31;52.57
26839;BME280;40088;51.214;6.786;2023-03-20T18:24:19;101542.13;;;17.32;52.73
26839;BME280;40088;51.214;6.786;2023-03-20T18:34:19;101528.19;;;17.33;52.50
26839;BME280;40088;51.214;6.786;2023-03-20T18:44:20;101531.97;;;17.32;52.62
26839;BME280;40088;51.214;6.786;2023-03-20T18:54:20;101543.00;;;17.32;52.44
26839;BME280;40088;51.214;6.786;2023-03-20T19:04:21;101539.38;;;17.32;52.68
26839;BME280;40088;51.214;6.786;2023-03-20T19:14:22;101542.28;;;17.30;52.67
26839;BME280;40088;51.214;6.786;2023-03-20T19:24:24;101541.25;;;17.31;52.58
26839;BME280;40088;51.214;6.786;2023-03-20T19:34:25;101531.97;;;17.32;52.69
26839;BME280;40088;51.214;6.786;2023-03-20T19:44:27;101525.59;;;17.32;52.61
26839;BME280;40088;51.214;6.786;2023-03-20T19:54:27;101510.78;;;17.33;52.61
26839;BME280;40088;51.214;6.786;2023-03-20T20:04:27;101505.28;;;17.33;52.72
26839;BME280;40088;51.214;6.786;2023-03-20T20:14:28;101500.63;;;17.33;52.76
26839;BME280;40088;51.214;6.786;2023-03-20T20:24:28;101503.38;;;17.33;52.70
26839;BME280;40088;51.214;6.786;2023-03-20T20:34:29;101502.34;;;17.34;52.73
26839;BME280;40088;51.214;6.786;2023-03-20T20:44:29;101507.19;;;17.32;52.60
26839;BME280;40088;51.214;6.786;2023-03-20T20:54:30;101499.41;;;17.36;52.63
26839;BME280;40088;51.214;6.786;2023-03-20T21:04:30;101497.69;;;17.35;52.62
26839;BME280;40088;51.214;6.786;2023-03-20T21:14:30;101497.69;;;17.35;52.58
26839;BME280;40088;51.214;6.786;2023-03-20T21:24:31;101498.53;;;17.35;52.63
26839;BME280;40088;51.214;6.786;2023-03-20T21:34:32;101504.03;;;17.35;52.60
26839;BME280;40088;51.214;6.786;2023-03-20T21:44:32;101498.53;;;17.35;52.74
26839;BME280;40088;51.214;6.786;2023-03-20T21:54:32;101492.16;;;17.35;52.50
26839;BME280;40088;51.214;6.786;2023-03-20T22:04:33;101502.16;;;17.36;52.66
26839;BME280;40088;51.214;6.786;2023-03-20T22:14:33;101493.88;;;17.36;52.63
26839;BME280;40088;51.214;6.786;2023-03-20T22:24:33;101504.91;;;17.36;52.61
26839;BME280;40088;51.214;6.786;2023-03-20T22:34:36;101507.66;;;17.36;52.65
26839;BME280;40088;51.214;6.786;2023-03-20T22:44:36;101502.16;;;17.36;52.54
26839;BME280;40088;51.214;6.786;2023-03-20T22:54:36;101491.81;;;17.38;52.67
26839;BME280;40088;51.214;6.786;2023-03-20T23:04:37;101485.63;;;17.36;52.58
26839;BME280;40088;51.214;6.786;2023-03-20T23:14:37;101480.09;;;17.36;52.68
26839;BME280;40088;51.214;6.786;2023-03-20T23:24:37;101467.19;;;17.36;52.65
26839;BME280;40088;51.214;6.786;2023-03-20T23:34:38;101467.38;;;17.35;52.48
26839;BME280;40088;51.214;6.786;2023-03-20T23:44:38;101463.56;;;17.36;52.32
26839;BME280;40088;51.214;6.786;2023-03-20T23:54:38;101450.84;;;17.35;52.56
